Pagrindinis puslapis
METAR-TAF:

METAR-TAF

Oro uostai :

Bagdadas, Irakas

platuma: 33-15-45N, ilguma: 44-14-04E, Aukštis: 35 m

Dabartinis oras

Ataskaita buvo paskelbta 42 minutes, ne 23:00 UTC
Ramus vėjas
Temperatūra 24°C
Drėgmė 41%
Slėgis 1004 hPa
Matomumas: 8000 m

METAR: ORBI 232300Z 00000KT 8000 NSC 24/10 Q1004 NOSIG

Laikas: 02:42 (23:42 UTC)

Prognozė

Ataskaita buvo paskelbta 7 valandos ir 42 minutes, ne 16:00 UTC
Prognozė galioja nuo 23 metu 18 UTC su 24 metu 18 UTC
Vėjas 6 kt iš Vakarų/Šiaurės Vakarų
Matomumas: 8000 m

TAF: ORBI 231600Z 2318/2418 30006KT 8000 NSC

Orai ataskaitas ir orų prognozės (METAR, TAF).

turimą stotys yra geltonos ir raudonos taškus žemėlapyje.

Perkelti pele per norėdami pamatyti stoties vardą.

Tada spustelėkite, norėdami matyti oro stebėjimo ir prognozės.

Norėdami pakeisti žemėlapį: spustelėkite ant žalios mygtukų su juodo kryžiaus žemyn,; žalią mygtuką su brūkšneliu, jei norite nutolinti; arba žalių rodyklių gretimoms žemėlapius.


METAR-TAF: